Thursday, October 30, 2014
16:45 UTC
  |  Log In   |  Register Free
Airport Search:

Modesto City-Co-Harry Sham Fld Airport
(KMOD)

FAA data valid effective September 18, 2014 - November 13, 2014 (unless otherwise noted).

 
 
 
 
 
 
 
 
 
 
 
 
 
 

Current Aviation Weather for Modesto City-Co-Harry Sham Fld Airport (KMOD)

The most recent METAR observation for KMOD was updated at: 1616
METAR Summary (Translated METAR)
KMOD
301553Z 11005KT 8SM CLR 12/07 A2997 RMK AO2 SLP148 T01220072
KSCK
301555Z AUTO 11006KT 10SM CLR 15/07 A2996 RMK AO2 SLP145 T01500072
(21 nm NW from KMOD)
KMER
301545Z 00000KT 10SM BKN150 14/09 A2997
(23.6 nm SE from KMOD)
TAF Summary (Translated TAF)
KSCK
(21 nm NW from KMOD)
301120Z 3012/3112 VRB04KT P6SM BKN250 FM302200 29007KT P6SM BKN200
KMER
(23.6 nm SE from KMOD)
301126Z 3012/3112 VRB03KT P6SM FEW150 BKN250= TAF RJCC 301106Z 3012/3118 13005KT 9999 FEW015 BECMG 3103/3106 36005KT
  Airport Weather Conditions for KMOD

 Current Weather at MOD
54° F
Fair
East winds at 5.8 mph
MOD NOAA Radar

Pressure: 29.97 in
Humidity: 72%
Wind: East at 5.8 MPH (5 KT)
Dew Point: 45.0°F
Visibility: 8.00 mi


Airport Weather Forecast for KMOD

Translated METAR and TAF for KMOD
Translated METAR for KMOD (1640 UTC 30 October 2014)
found at http://aviationweather.gov/adds/metars/
 
METAR text: KMOD 301553Z 11005KT 8SM CLR 12/07 A2997 RMK AO2 SLP148 T01220072
Conditions at: KMOD (MODESTO , CA, US) observed 1553 UTC 30 October 2014
Temperature: 12.2°C (54°F)
Dewpoint: 7.2°C (45°F) [RH = 71%]
Pressure (altimeter): 29.97 inches Hg (1015.0 mb)
[Sea-level pressure: 1014.8 mb]
Winds: from the ESE (110 degrees) at 6 MPH (5 knots; 2.6 m/s)
Visibility: 8 miles (13 km)
Ceiling: at least 12,000 feet AGL
Clouds: sky clear below 12,000 feet AGL
Weather: no significant weather observed at this time
Translated TAF for KMOD

There is no translated TAF available for this airport

Find All Airport Services Find A Hotel Find A Rental Car Find A Golf Course Find A Restaurant $100 Hamburger



FBO's on the Field
FBO Company Facility Photos Services Transportation Aviation Fuel Prices: Prices include tax
Catering Weather Repair Courtesy Rental Type 100LL JetA JetA+ MOGAS 8087
 
Sky Trek Aviation

This FBO has not yet been rated
FS:Avfuel
Last Updated: Oct-07
Login to update fuel prices
SS:
Contact Sky Trek AviationMore FBO Information
 
Add another FBO Facility Photos Catering Weather Repair Courtesy Rental Type 100LL JetA JetA+ MOGAS 8087
Services Transportation Aviation Fuel Prices: Prices include tax


model-print
model-print
model-print
model-print